sensor_id;sensor_type;location;lat;lon;timestamp;temperature;humidity
79356;SHT31;68825;51.978;5.654;2023-06-24T00:01:46;21.5;64.1
79356;SHT31;68825;51.978;5.654;2023-06-24T00:04:14;21.4;64.2
79356;SHT31;68825;51.978;5.654;2023-06-24T00:06:45;21.4;64.5
79356;SHT31;68825;51.978;5.654;2023-06-24T00:09:16;21.4;64.8
79356;SHT31;68825;51.978;5.654;2023-06-24T00:11:46;21.4;64.1
79356;SHT31;68825;51.978;5.654;2023-06-24T00:14:16;21.3;64.5
79356;SHT31;68825;51.978;5.654;2023-06-24T00:16:44;21.3;64.5
79356;SHT31;68825;51.978;5.654;2023-06-24T00:19:15;21.3;64.6
79356;SHT31;68825;51.978;5.654;2023-06-24T00:21:45;21.3;64.9
79356;SHT31;68825;51.978;5.654;2023-06-24T00:24:13;21.2;64.5
79356;SHT31;68825;51.978;5.654;2023-06-24T00:26:43;21.2;64.6
79356;SHT31;68825;51.978;5.654;2023-06-24T00:29:12;21.2;64.8
79356;SHT31;68825;51.978;5.654;2023-06-24T00:31:42;21.2;64.4
79356;SHT31;68825;51.978;5.654;2023-06-24T00:34:13;21.1;64.5
79356;SHT31;68825;51.978;5.654;2023-06-24T00:36:42;21.1;64.7
79356;SHT31;68825;51.978;5.654;2023-06-24T00:39:13;21.1;65.5
79356;SHT31;68825;51.978;5.654;2023-06-24T00:41:42;21.1;65.6
79356;SHT31;68825;51.978;5.654;2023-06-24T00:44:11;21.0;65.7
79356;SHT31;68825;51.978;5.654;2023-06-24T00:46:40;21.0;65.7
79356;SHT31;68825;51.978;5.654;2023-06-24T00:49:09;21.0;66.4
79356;SHT31;68825;51.978;5.654;2023-06-24T00:51:42;21.0;65.8
79356;SHT31;68825;51.978;5.654;2023-06-24T00:54:13;20.9;66.2
79356;SHT31;68825;51.978;5.654;2023-06-24T00:56:43;20.9;66.6
79356;SHT31;68825;51.978;5.654;2023-06-24T00:59:13;20.9;66.3
79356;SHT31;68825;51.978;5.654;2023-06-24T01:01:45;20.9;66.4
79356;SHT31;68825;51.978;5.654;2023-06-24T01:04:17;20.8;67.3
79356;SHT31;68825;51.978;5.654;2023-06-24T01:06:46;20.8;66.9
79356;SHT31;68825;51.978;5.654;2023-06-24T01:09:15;20.8;67.1
79356;SHT31;68825;51.978;5.654;2023-06-24T01:11:46;20.8;67.1
79356;SHT31;68825;51.978;5.654;2023-06-24T01:14:15;20.8;67.7
79356;SHT31;68825;51.978;5.654;2023-06-24T01:16:55;20.7;67.3
79356;SHT31;68825;51.978;5.654;2023-06-24T01:19:53;20.7;67.9
79356;SHT31;68825;51.978;5.654;2023-06-24T01:22:42;20.7;67.8
79356;SHT31;68825;51.978;5.654;2023-06-24T01:25:28;20.7;68.0
79356;SHT31;68825;51.978;5.654;2023-06-24T01:28:19;20.7;67.8
79356;SHT31;68825;51.978;5.654;2023-06-24T01:31:15;20.7;67.8
79356;SHT31;68825;51.978;5.654;2023-06-24T01:33:48;20.7;68.3
79356;SHT31;68825;51.978;5.654;2023-06-24T01:36:20;20.6;68.1
79356;SHT31;68825;51.978;5.654;2023-06-24T01:39:01;20.6;68.2
79356;SHT31;68825;51.978;5.654;2023-06-24T01:41:34;20.6;68.5
79356;SHT31;68825;51.978;5.654;2023-06-24T01:44:06;20.6;68.3
79356;SHT31;68825;51.978;5.654;2023-06-24T01:46:37;20.6;67.9
79356;SHT31;68825;51.978;5.654;2023-06-24T01:49:07;20.6;68.1
79356;SHT31;68825;51.978;5.654;2023-06-24T01:51:41;20.6;68.2
79356;SHT31;68825;51.978;5.654;2023-06-24T01:54:16;20.5;67.9
79356;SHT31;68825;51.978;5.654;2023-06-24T01:56:48;20.5;67.8
79356;SHT31;68825;51.978;5.654;2023-06-24T01:59:19;20.5;68.5
79356;SHT31;68825;51.978;5.654;2023-06-24T02:01:50;20.5;68.5
79356;SHT31;68825;51.978;5.654;2023-06-24T02:04:21;20.5;68.9
79356;SHT31;68825;51.978;5.654;2023-06-24T02:06:53;20.5;68.9
79356;SHT31;68825;51.978;5.654;2023-06-24T02:09:25;20.5;69.0
79356;SHT31;68825;51.978;5.654;2023-06-24T02:11:58;20.5;68.9
79356;SHT31;68825;51.978;5.654;2023-06-24T02:14:29;20.4;68.3
79356;SHT31;68825;51.978;5.654;2023-06-24T02:17:01;20.4;68.3
79356;SHT31;68825;51.978;5.654;2023-06-24T02:19:33;20.4;68.6
79356;SHT31;68825;51.978;5.654;2023-06-24T02:22:05;20.4;68.7
79356;SHT31;68825;51.978;5.654;2023-06-24T02:24:37;20.4;68.9
79356;SHT31;68825;51.978;5.654;2023-06-24T02:27:08;20.4;68.6
79356;SHT31;68825;51.978;5.654;2023-06-24T02:29:39;20.3;69.0
79356;SHT31;68825;51.978;5.654;2023-06-24T02:32:09;20.3;68.9
79356;SHT31;68825;51.978;5.654;2023-06-24T02:34:39;20.3;69.1
79356;SHT31;68825;51.978;5.654;2023-06-24T02:37:08;20.3;69.2
79356;SHT31;68825;51.978;5.654;2023-06-24T02:39:38;20.3;69.2
79356;SHT31;68825;51.978;5.654;2023-06-24T02:42:10;20.3;69.4
79356;SHT31;68825;51.978;5.654;2023-06-24T02:44:40;20.2;68.9
79356;SHT31;68825;51.978;5.654;2023-06-24T02:47:12;20.2;69.2
79356;SHT31;68825;51.978;5.654;2023-06-24T02:49:44;20.2;69.4
79356;SHT31;68825;51.978;5.654;2023-06-24T02:52:16;20.2;69.5
79356;SHT31;68825;51.978;5.654;2023-06-24T02:54:45;20.2;69.8
79356;SHT31;68825;51.978;5.654;2023-06-24T02:57:14;20.2;69.3
79356;SHT31;68825;51.978;5.654;2023-06-24T02:59:45;20.1;69.2
79356;SHT31;68825;51.978;5.654;2023-06-24T03:02:16;20.1;69.0
79356;SHT31;68825;51.978;5.654;2023-06-24T03:04:45;20.1;69.0
79356;SHT31;68825;51.978;5.654;2023-06-24T03:07:15;20.1;69.2
79356;SHT31;68825;51.978;5.654;2023-06-24T03:09:47;20.1;69.7
79356;SHT31;68825;51.978;5.654;2023-06-24T03:12:15;20.0;69.7
79356;SHT31;68825;51.978;5.654;2023-06-24T03:14:46;20.0;69.5
79356;SHT31;68825;51.978;5.654;2023-06-24T03:17:14;20.0;69.8
79356;SHT31;68825;51.978;5.654;2023-06-24T03:19:45;20.0;69.8
79356;SHT31;68825;51.978;5.654;2023-06-24T03:22:14;20.0;69.7
79356;SHT31;68825;51.978;5.654;2023-06-24T03:24:43;20.0;69.5
79356;SHT31;68825;51.978;5.654;2023-06-24T03:27:12;19.9;69.9
79356;SHT31;68825;51.978;5.654;2023-06-24T03:29:40;19.9;70.1
79356;SHT31;68825;51.978;5.654;2023-06-24T03:32:09;19.9;69.2
79356;SHT31;68825;51.978;5.654;2023-06-24T03:34:37;19.9;69.7
79356;SHT31;68825;51.978;5.654;2023-06-24T03:37:06;19.9;69.7
79356;SHT31;68825;51.978;5.654;2023-06-24T03:39:35;19.9;69.6
79356;SHT31;68825;51.978;5.654;2023-06-24T03:42:04;19.9;69.8
79356;SHT31;68825;51.978;5.654;2023-06-24T03:44:34;19.8;69.8
79356;SHT31;68825;51.978;5.654;2023-06-24T03:47:03;19.8;70.0
79356;SHT31;68825;51.978;5.654;2023-06-24T03:49:31;19.8;69.9
79356;SHT31;68825;51.978;5.654;2023-06-24T03:52:00;19.8;69.3
79356;SHT31;68825;51.978;5.654;2023-06-24T03:54:30;19.8;69.9
79356;SHT31;68825;51.978;5.654;2023-06-24T03:57:00;19.8;70.6
79356;SHT31;68825;51.978;5.654;2023-06-24T03:59:31;19.8;70.2
79356;SHT31;68825;51.978;5.654;2023-06-24T04:02:00;19.8;70.4
79356;SHT31;68825;51.978;5.654;2023-06-24T04:04:29;19.8;70.1
79356;SHT31;68825;51.978;5.654;2023-06-24T04:06:57;19.7;70.3
79356;SHT31;68825;51.978;5.654;2023-06-24T04:09:26;19.7;70.2
79356;SHT31;68825;51.978;5.654;2023-06-24T04:11:56;19.7;70.3
79356;SHT31;68825;51.978;5.654;2023-06-24T04:14:24;19.7;70.7
79356;SHT31;68825;51.978;5.654;2023-06-24T04:16:57;19.7;70.4
79356;SHT31;68825;51.978;5.654;2023-06-24T04:19:27;19.7;70.8
79356;SHT31;68825;51.978;5.654;2023-06-24T04:21:56;19.7;70.9
79356;SHT31;68825;51.978;5.654;2023-06-24T04:24:24;19.7;70.9
79356;SHT31;68825;51.978;5.654;2023-06-24T04:26:53;19.7;70.8
79356;SHT31;68825;51.978;5.654;2023-06-24T04:29:21;19.7;71.1
79356;SHT31;68825;51.978;5.654;2023-06-24T04:31:50;19.7;71.3
79356;SHT31;68825;51.978;5.654;2023-06-24T04:34:19;19.7;71.7
79356;SHT31;68825;51.978;5.654;2023-06-24T04:36:49;19.8;71.5
79356;SHT31;68825;51.978;5.654;2023-06-24T04:39:18;19.8;71.4
79356;SHT31;68825;51.978;5.654;2023-06-24T04:41:46;19.8;71.6
79356;SHT31;68825;51.978;5.654;2023-06-24T04:44:15;19.8;71.6
79356;SHT31;68825;51.978;5.654;2023-06-24T04:46:43;19.8;71.6
79356;SHT31;68825;51.978;5.654;2023-06-24T04:49:12;19.8;71.7
79356;SHT31;68825;51.978;5.654;2023-06-24T04:51:41;19.8;71.6
79356;SHT31;68825;51.978;5.654;2023-06-24T04:54:09;19.8;72.0
79356;SHT31;68825;51.978;5.654;2023-06-24T04:56:38;19.9;72.0
79356;SHT31;68825;51.978;5.654;2023-06-24T04:59:07;19.9;72.3
79356;SHT31;68825;51.978;5.654;2023-06-24T05:01:36;19.9;71.6
79356;SHT31;68825;51.978;5.654;2023-06-24T05:04:06;19.9;71.1
79356;SHT31;68825;51.978;5.654;2023-06-24T05:06:34;19.9;70.7
79356;SHT31;68825;51.978;5.654;2023-06-24T05:09:03;20.0;70.7
79356;SHT31;68825;51.978;5.654;2023-06-24T05:11:31;20.0;69.0
79356;SHT31;68825;51.978;5.654;2023-06-24T05:14:00;20.0;69.3
79356;SHT31;68825;51.978;5.654;2023-06-24T05:16:29;20.1;69.7
79356;SHT31;68825;51.978;5.654;2023-06-24T05:18:58;20.2;69.2
79356;SHT31;68825;51.978;5.654;2023-06-24T05:21:26;20.3;67.8
79356;SHT31;68825;51.978;5.654;2023-06-24T05:23:56;20.4;67.2
79356;SHT31;68825;51.978;5.654;2023-06-24T05:26:25;20.6;67.7
79356;SHT31;68825;51.978;5.654;2023-06-24T05:28:54;20.8;66.2
79356;SHT31;68825;51.978;5.654;2023-06-24T05:31:23;21.0;65.8
79356;SHT31;68825;51.978;5.654;2023-06-24T05:33:52;21.2;63.2
79356;SHT31;68825;51.978;5.654;2023-06-24T05:36:20;21.5;63.7
79356;SHT31;68825;51.978;5.654;2023-06-24T05:38:50;21.7;65.2
79356;SHT31;68825;51.978;5.654;2023-06-24T05:41:21;21.9;59.3
79356;SHT31;68825;51.978;5.654;2023-06-24T05:44:04;22.1;60.9
79356;SHT31;68825;51.978;5.654;2023-06-24T05:46:35;22.4;58.4
79356;SHT31;68825;51.978;5.654;2023-06-24T05:49:04;22.6;59.2
79356;SHT31;68825;51.978;5.654;2023-06-24T05:51:33;22.8;57.4
79356;SHT31;68825;51.978;5.654;2023-06-24T05:54:02;23.0;57.0
79356;SHT31;68825;51.978;5.654;2023-06-24T05:56:30;23.2;58.2
79356;SHT31;68825;51.978;5.654;2023-06-24T05:59:01;23.4;57.2
79356;SHT31;68825;51.978;5.654;2023-06-24T06:01:29;23.5;56.5
79356;SHT31;68825;51.978;5.654;2023-06-24T06:03:58;23.7;55.2
79356;SHT31;68825;51.978;5.654;2023-06-24T06:06:27;23.8;55.0
79356;SHT31;68825;51.978;5.654;2023-06-24T06:08:57;23.9;57.1
79356;SHT31;68825;51.978;5.654;2023-06-24T06:11:27;24.0;54.9
79356;SHT31;68825;51.978;5.654;2023-06-24T06:13:56;24.0;55.7
79356;SHT31;68825;51.978;5.654;2023-06-24T06:16:25;24.0;55.8
79356;SHT31;68825;51.978;5.654;2023-06-24T06:18:54;24.0;55.1
79356;SHT31;68825;51.978;5.654;2023-06-24T06:21:26;24.0;53.7
79356;SHT31;68825;51.978;5.654;2023-06-24T06:23:54;23.9;53.5
79356;SHT31;68825;51.978;5.654;2023-06-24T06:26:23;23.9;54.4
79356;SHT31;68825;51.978;5.654;2023-06-24T06:28:52;23.9;56.4
79356;SHT31;68825;51.978;5.654;2023-06-24T06:31:21;23.8;54.4
79356;SHT31;68825;51.978;5.654;2023-06-24T06:33:52;23.8;53.6
79356;SHT31;68825;51.978;5.654;2023-06-24T06:36:21;23.8;54.3
79356;SHT31;68825;51.978;5.654;2023-06-24T06:38:49;23.8;54.8
79356;SHT31;68825;51.978;5.654;2023-06-24T06:41:18;23.8;54.5
79356;SHT31;68825;51.978;5.654;2023-06-24T06:43:50;23.7;56.0
79356;SHT31;68825;51.978;5.654;2023-06-24T06:46:20;23.7;56.0
79356;SHT31;68825;51.978;5.654;2023-06-24T06:48:48;23.7;55.0
79356;SHT31;68825;51.978;5.654;2023-06-24T06:51:17;23.7;54.7
79356;SHT31;68825;51.978;5.654;2023-06-24T06:53:46;23.7;55.7
79356;SHT31;68825;51.978;5.654;2023-06-24T06:56:23;23.7;56.1
79356;SHT31;68825;51.978;5.654;2023-06-24T06:58:53;23.7;55.7
79356;SHT31;68825;51.978;5.654;2023-06-24T07:01:21;23.7;53.0
79356;SHT31;68825;51.978;5.654;2023-06-24T07:03:51;23.6;53.4
79356;SHT31;68825;51.978;5.654;2023-06-24T07:06:21;23.6;52.8
79356;SHT31;68825;51.978;5.654;2023-06-24T07:08:49;23.6;52.9
79356;SHT31;68825;51.978;5.654;2023-06-24T07:11:18;23.6;53.1
79356;SHT31;68825;51.978;5.654;2023-06-24T07:13:46;23.6;53.2
79356;SHT31;68825;51.978;5.654;2023-06-24T07:16:17;23.6;53.6
79356;SHT31;68825;51.978;5.654;2023-06-24T07:18:46;23.7;53.2
79356;SHT31;68825;51.978;5.654;2023-06-24T07:21:14;23.7;53.8
79356;SHT31;68825;51.978;5.654;2023-06-24T07:23:43;23.7;52.1
79356;SHT31;68825;51.978;5.654;2023-06-24T07:26:12;23.7;52.0
79356;SHT31;68825;51.978;5.654;2023-06-24T07:28:42;23.7;49.5
79356;SHT31;68825;51.978;5.654;2023-06-24T07:31:10;23.8;51.4
79356;SHT31;68825;51.978;5.654;2023-06-24T07:33:41;23.8;50.1
79356;SHT31;68825;51.978;5.654;2023-06-24T07:36:09;23.8;50.5
79356;SHT31;68825;51.978;5.654;2023-06-24T07:38:40;23.8;50.4
79356;SHT31;68825;51.978;5.654;2023-06-24T07:41:08;23.8;50.7
79356;SHT31;68825;51.978;5.654;2023-06-24T07:43:37;23.9;50.5
79356;SHT31;68825;51.978;5.654;2023-06-24T07:46:07;23.9;50.4
79356;SHT31;68825;51.978;5.654;2023-06-24T07:48:36;23.9;49.8
79356;SHT31;68825;51.978;5.654;2023-06-24T07:51:04;23.9;48.9
79356;SHT31;68825;51.978;5.654;2023-06-24T07:53:34;23.9;48.3
79356;SHT31;68825;51.978;5.654;2023-06-24T07:56:03;24.0;49.0
79356;SHT31;68825;51.978;5.654;2023-06-24T07:58:33;24.0;49.0
79356;SHT31;68825;51.978;5.654;2023-06-24T08:01:01;24.0;49.8
79356;SHT31;68825;51.978;5.654;2023-06-24T08:03:30;24.0;49.5
79356;SHT31;68825;51.978;5.654;2023-06-24T08:06:00;24.0;49.1
79356;SHT31;68825;51.978;5.654;2023-06-24T08:08:29;24.1;47.5
79356;SHT31;68825;51.978;5.654;2023-06-24T08:10:57;24.1;48.0
79356;SHT31;68825;51.978;5.654;2023-06-24T08:13:26;24.2;47.5
79356;SHT31;68825;51.978;5.654;2023-06-24T08:15:55;24.2;47.9
79356;SHT31;68825;51.978;5.654;2023-06-24T08:18:23;24.2;48.0
79356;SHT31;68825;51.978;5.654;2023-06-24T08:20:52;24.3;48.5
79356;SHT31;68825;51.978;5.654;2023-06-24T08:23:20;24.3;48.7
79356;SHT31;68825;51.978;5.654;2023-06-24T08:25:51;24.4;49.0
79356;SHT31;68825;51.978;5.654;2023-06-24T08:28:20;24.4;48.0
79356;SHT31;68825;51.978;5.654;2023-06-24T08:30:49;24.4;47.0
79356;SHT31;68825;51.978;5.654;2023-06-24T08:33:17;24.5;47.6
79356;SHT31;68825;51.978;5.654;2023-06-24T08:35:46;24.5;47.7
79356;SHT31;68825;51.978;5.654;2023-06-24T08:38:14;24.6;47.7
79356;SHT31;68825;51.978;5.654;2023-06-24T08:40:44;24.6;47.6
79356;SHT31;68825;51.978;5.654;2023-06-24T08:43:19;24.7;47.6
79356;SHT31;68825;51.978;5.654;2023-06-24T08:45:48;24.8;48.0
79356;SHT31;68825;51.978;5.654;2023-06-24T08:48:18;24.8;45.5
79356;SHT31;68825;51.978;5.654;2023-06-24T08:50:52;24.9;45.7
79356;SHT31;68825;51.978;5.654;2023-06-24T08:53:22;25.0;45.0
79356;SHT31;68825;51.978;5.654;2023-06-24T08:55:54;25.1;46.4
79356;SHT31;68825;51.978;5.654;2023-06-24T08:58:24;25.1;48.4
79356;SHT31;68825;51.978;5.654;2023-06-24T09:00:53;25.2;47.0
79356;SHT31;68825;51.978;5.654;2023-06-24T09:03:22;25.2;46.5
79356;SHT31;68825;51.978;5.654;2023-06-24T09:05:52;25.3;47.3
79356;SHT31;68825;51.978;5.654;2023-06-24T09:08:21;25.4;45.0
79356;SHT31;68825;51.978;5.654;2023-06-24T09:10:55;25.4;46.9
79356;SHT31;68825;51.978;5.654;2023-06-24T09:13:27;25.5;47.1
79356;SHT31;68825;51.978;5.654;2023-06-24T09:16:12;25.5;47.5
79356;SHT31;68825;51.978;5.654;2023-06-24T09:18:47;25.5;46.2
79356;SHT31;68825;51.978;5.654;2023-06-24T09:21:23;25.5;45.2
79356;SHT31;68825;51.978;5.654;2023-06-24T09:23:58;25.6;45.7
79356;SHT31;68825;51.978;5.654;2023-06-24T09:26:29;25.6;44.5
79356;SHT31;68825;51.978;5.654;2023-06-24T09:28:59;25.6;45.1
79356;SHT31;68825;51.978;5.654;2023-06-24T09:31:28;25.6;45.5
79356;SHT31;68825;51.978;5.654;2023-06-24T09:34:00;25.6;44.9
79356;SHT31;68825;51.978;5.654;2023-06-24T09:36:28;25.6;44.8
79356;SHT31;68825;51.978;5.654;2023-06-24T09:39:07;25.7;45.5
79356;SHT31;68825;51.978;5.654;2023-06-24T09:41:36;25.7;44.5
79356;SHT31;68825;51.978;5.654;2023-06-24T09:44:08;25.7;45.8
79356;SHT31;68825;51.978;5.654;2023-06-24T09:46:37;25.7;46.0
79356;SHT31;68825;51.978;5.654;2023-06-24T09:49:06;25.7;44.8
79356;SHT31;68825;51.978;5.654;2023-06-24T09:51:38;25.7;45.8
79356;SHT31;68825;51.978;5.654;2023-06-24T09:54:08;25.7;46.0
79356;SHT31;68825;51.978;5.654;2023-06-24T09:56:40;25.8;45.2
79356;SHT31;68825;51.978;5.654;2023-06-24T09:59:12;25.8;45.8
79356;SHT31;68825;51.978;5.654;2023-06-24T10:01:43;25.8;46.5
79356;SHT31;68825;51.978;5.654;2023-06-24T10:04:15;25.9;44.8
79356;SHT31;68825;51.978;5.654;2023-06-24T10:06:45;25.9;46.0
79356;SHT31;68825;51.978;5.654;2023-06-24T10:09:15;26.0;45.5
79356;SHT31;68825;51.978;5.654;2023-06-24T10:11:46;26.0;45.0
79356;SHT31;68825;51.978;5.654;2023-06-24T10:14:16;26.0;46.2
79356;SHT31;68825;51.978;5.654;2023-06-24T10:16:45;26.1;47.1
79356;SHT31;68825;51.978;5.654;2023-06-24T10:19:20;26.1;46.0
79356;SHT31;68825;51.978;5.654;2023-06-24T10:21:53;26.1;45.6
79356;SHT31;68825;51.978;5.654;2023-06-24T10:24:32;26.2;45.5
79356;SHT31;68825;51.978;5.654;2023-06-24T10:27:06;26.2;45.4
79356;SHT31;68825;51.978;5.654;2023-06-24T10:29:36;26.2;44.5
79356;SHT31;68825;51.978;5.654;2023-06-24T10:32:07;26.3;46.9
79356;SHT31;68825;51.978;5.654;2023-06-24T10:34:40;26.3;44.7
79356;SHT31;68825;51.978;5.654;2023-06-24T10:37:15;26.4;46.4
79356;SHT31;68825;51.978;5.654;2023-06-24T10:39:52;26.4;46.3
79356;SHT31;68825;51.978;5.654;2023-06-24T10:42:27;26.5;46.6
79356;SHT31;68825;51.978;5.654;2023-06-24T10:44:58;26.5;45.4
79356;SHT31;68825;51.978;5.654;2023-06-24T10:47:28;26.6;46.3
79356;SHT31;68825;51.978;5.654;2023-06-24T10:49:57;26.7;46.2
79356;SHT31;68825;51.978;5.654;2023-06-24T10:52:26;26.7;47.3
79356;SHT31;68825;51.978;5.654;2023-06-24T10:54:59;26.8;46.9
79356;SHT31;68825;51.978;5.654;2023-06-24T10:57:28;26.8;44.9
79356;SHT31;68825;51.978;5.654;2023-06-24T11:00:01;26.9;45.5
79356;SHT31;68825;51.978;5.654;2023-06-24T11:02:34;27.0;44.6
79356;SHT31;68825;51.978;5.654;2023-06-24T11:05:04;27.0;44.3
79356;SHT31;68825;51.978;5.654;2023-06-24T11:07:34;27.1;44.0
79356;SHT31;68825;51.978;5.654;2023-06-24T11:10:05;27.1;44.8
79356;SHT31;68825;51.978;5.654;2023-06-24T11:12:35;27.2;46.9
79356;SHT31;68825;51.978;5.654;2023-06-24T11:15:05;27.3;45.1
79356;SHT31;68825;51.978;5.654;2023-06-24T11:17:35;27.3;44.7
79356;SHT31;68825;51.978;5.654;2023-06-24T11:20:07;27.4;45.2
79356;SHT31;68825;51.978;5.654;2023-06-24T11:22:36;27.5;45.0
79356;SHT31;68825;51.978;5.654;2023-06-24T11:25:05;27.5;45.2
79356;SHT31;68825;51.978;5.654;2023-06-24T11:27:36;27.6;46.7
79356;SHT31;68825;51.978;5.654;2023-06-24T11:30:05;27.7;44.2
79356;SHT31;68825;51.978;5.654;2023-06-24T11:32:38;27.7;43.8
79356;SHT31;68825;51.978;5.654;2023-06-24T11:35:09;27.8;45.7
79356;SHT31;68825;51.978;5.654;2023-06-24T11:37:41;27.9;44.1
79356;SHT31;68825;51.978;5.654;2023-06-24T11:40:13;27.9;44.1
79356;SHT31;68825;51.978;5.654;2023-06-24T11:42:43;28.0;44.4
79356;SHT31;68825;51.978;5.654;2023-06-24T11:45:14;28.1;44.2
79356;SHT31;68825;51.978;5.654;2023-06-24T11:47:47;28.1;43.4
79356;SHT31;68825;51.978;5.654;2023-06-24T11:50:17;28.2;43.5
79356;SHT31;68825;51.978;5.654;2023-06-24T11:52:47;28.2;44.6
79356;SHT31;68825;51.978;5.654;2023-06-24T11:55:20;28.3;43.7
79356;SHT31;68825;51.978;5.654;2023-06-24T11:57:53;28.3;42.6
79356;SHT31;68825;51.978;5.654;2023-06-24T12:00:24;28.4;42.6
79356;SHT31;68825;51.978;5.654;2023-06-24T12:02:55;28.4;43.6
79356;SHT31;68825;51.978;5.654;2023-06-24T12:05:26;28.5;43.3
79356;SHT31;68825;51.978;5.654;2023-06-24T12:07:58;28.6;44.7
79356;SHT31;68825;51.978;5.654;2023-06-24T12:10:27;28.7;42.8
79356;SHT31;68825;51.978;5.654;2023-06-24T12:12:59;28.7;45.4
79356;SHT31;68825;51.978;5.654;2023-06-24T12:15:28;28.8;45.0
79356;SHT31;68825;51.978;5.654;2023-06-24T12:18:00;28.8;44.3
79356;SHT31;68825;51.978;5.654;2023-06-24T12:20:29;28.9;41.7
79356;SHT31;68825;51.978;5.654;2023-06-24T12:23:00;28.9;42.3
79356;SHT31;68825;51.978;5.654;2023-06-24T12:25:30;28.9;42.1
79356;SHT31;68825;51.978;5.654;2023-06-24T12:27:58;29.0;41.7
79356;SHT31;68825;51.978;5.654;2023-06-24T12:30:29;29.0;41.8
79356;SHT31;68825;51.978;5.654;2023-06-24T12:32:58;29.0;41.3
79356;SHT31;68825;51.978;5.654;2023-06-24T12:35:26;29.0;43.0
79356;SHT31;68825;51.978;5.654;2023-06-24T12:37:55;29.1;42.5
79356;SHT31;68825;51.978;5.654;2023-06-24T12:40:23;29.1;44.0
79356;SHT31;68825;51.978;5.654;2023-06-24T12:42:52;29.2;41.0
79356;SHT31;68825;51.978;5.654;2023-06-24T12:45:20;29.2;41.0
79356;SHT31;68825;51.978;5.654;2023-06-24T12:47:49;29.3;40.9
79356;SHT31;68825;51.978;5.654;2023-06-24T12:50:18;29.4;41.6
79356;SHT31;68825;51.978;5.654;2023-06-24T12:52:48;29.4;42.9
79356;SHT31;68825;51.978;5.654;2023-06-24T12:55:17;29.5;42.8
79356;SHT31;68825;51.978;5.654;2023-06-24T12:57:47;29.5;40.3
79356;SHT31;68825;51.978;5.654;2023-06-24T13:00:19;29.5;42.0
79356;SHT31;68825;51.978;5.654;2023-06-24T13:02:50;29.5;43.1
79356;SHT31;68825;51.978;5.654;2023-06-24T13:05:19;29.5;42.1
79356;SHT31;68825;51.978;5.654;2023-06-24T13:07:48;29.6;41.6
79356;SHT31;68825;51.978;5.654;2023-06-24T13:10:17;29.6;40.7
79356;SHT31;68825;51.978;5.654;2023-06-24T13:12:45;29.6;42.0
79356;SHT31;68825;51.978;5.654;2023-06-24T13:15:14;29.7;42.9
79356;SHT31;68825;51.978;5.654;2023-06-24T13:17:43;29.8;39.3
79356;SHT31;68825;51.978;5.654;2023-06-24T13:20:14;29.8;39.2
79356;SHT31;68825;51.978;5.654;2023-06-24T13:22:42;29.9;38.9
79356;SHT31;68825;51.978;5.654;2023-06-24T13:25:11;29.9;40.2
79356;SHT31;68825;51.978;5.654;2023-06-24T13:27:39;29.9;39.0
79356;SHT31;68825;51.978;5.654;2023-06-24T13:30:11;30.0;41.2
79356;SHT31;68825;51.978;5.654;2023-06-24T13:32:41;30.0;39.8
79356;SHT31;68825;51.978;5.654;2023-06-24T13:35:10;30.1;38.3
79356;SHT31;68825;51.978;5.654;2023-06-24T13:37:39;30.1;38.8
79356;SHT31;68825;51.978;5.654;2023-06-24T13:40:10;30.2;40.0
79356;SHT31;68825;51.978;5.654;2023-06-24T13:42:39;30.2;39.5
79356;SHT31;68825;51.978;5.654;2023-06-24T13:45:08;30.3;40.2
79356;SHT31;68825;51.978;5.654;2023-06-24T13:47:37;30.3;39.8
79356;SHT31;68825;51.978;5.654;2023-06-24T13:50:06;30.4;39.8
79356;SHT31;68825;51.978;5.654;2023-06-24T13:52:37;30.4;38.8
79356;SHT31;68825;51.978;5.654;2023-06-24T13:55:07;30.5;39.2
79356;SHT31;68825;51.978;5.654;2023-06-24T13:57:35;30.5;39.2
79356;SHT31;68825;51.978;5.654;2023-06-24T14:00:05;30.5;38.5
79356;SHT31;68825;51.978;5.654;2023-06-24T14:02:35;30.6;39.1
79356;SHT31;68825;51.978;5.654;2023-06-24T14:05:04;30.6;40.7
79356;SHT31;68825;51.978;5.654;2023-06-24T14:07:33;30.7;39.6
79356;SHT31;68825;51.978;5.654;2023-06-24T14:10:03;30.7;40.7
79356;SHT31;68825;51.978;5.654;2023-06-24T14:12:32;30.8;38.5
79356;SHT31;68825;51.978;5.654;2023-06-24T14:15:01;30.8;39.4
79356;SHT31;68825;51.978;5.654;2023-06-24T14:17:29;30.8;40.3
79356;SHT31;68825;51.978;5.654;2023-06-24T14:19:58;30.8;43.0
79356;SHT31;68825;51.978;5.654;2023-06-24T14:22:26;30.8;41.4
79356;SHT31;68825;51.978;5.654;2023-06-24T14:24:57;30.8;39.7
79356;SHT31;68825;51.978;5.654;2023-06-24T14:27:25;30.8;39.6
79356;SHT31;68825;51.978;5.654;2023-06-24T14:29:54;30.8;41.2
79356;SHT31;68825;51.978;5.654;2023-06-24T14:32:22;30.8;39.5
79356;SHT31;68825;51.978;5.654;2023-06-24T14:34:51;30.8;40.1
79356;SHT31;68825;51.978;5.654;2023-06-24T14:37:21;30.8;39.9
79356;SHT31;68825;51.978;5.654;2023-06-24T14:39:50;30.8;40.8
79356;SHT31;68825;51.978;5.654;2023-06-24T14:42:20;30.7;42.5
79356;SHT31;68825;51.978;5.654;2023-06-24T14:44:49;30.7;39.7
79356;SHT31;68825;51.978;5.654;2023-06-24T14:47:18;30.7;40.3
79356;SHT31;68825;51.978;5.654;2023-06-24T14:49:46;30.7;39.5
79356;SHT31;68825;51.978;5.654;2023-06-24T14:52:17;30.7;38.5
79356;SHT31;68825;51.978;5.654;2023-06-24T14:54:46;30.7;38.5
79356;SHT31;68825;51.978;5.654;2023-06-24T14:57:15;30.7;39.9
79356;SHT31;68825;51.978;5.654;2023-06-24T14:59:44;30.7;41.5
79356;SHT31;68825;51.978;5.654;2023-06-24T15:02:14;30.7;40.6
79356;SHT31;68825;51.978;5.654;2023-06-24T15:04:43;30.8;39.1
79356;SHT31;68825;51.978;5.654;2023-06-24T15:07:12;30.8;41.8
79356;SHT31;68825;51.978;5.654;2023-06-24T15:09:40;30.9;41.7
79356;SHT31;68825;51.978;5.654;2023-06-24T15:12:10;31.0;41.5
79356;SHT31;68825;51.978;5.654;2023-06-24T15:14:38;31.1;40.0
79356;SHT31;68825;51.978;5.654;2023-06-24T15:17:07;31.2;40.2
79356;SHT31;68825;51.978;5.654;2023-06-24T15:19:38;31.3;40.0
79356;SHT31;68825;51.978;5.654;2023-06-24T15:22:08;31.4;41.6
79356;SHT31;68825;51.978;5.654;2023-06-24T15:24:37;31.5;38.8
79356;SHT31;68825;51.978;5.654;2023-06-24T15:27:06;31.6;40.0
79356;SHT31;68825;51.978;5.654;2023-06-24T15:29:37;31.7;40.8
79356;SHT31;68825;51.978;5.654;2023-06-24T15:32:06;31.8;38.6
79356;SHT31;68825;51.978;5.654;2023-06-24T15:34:35;31.9;39.5
79356;SHT31;68825;51.978;5.654;2023-06-24T15:37:04;31.9;40.7
79356;SHT31;68825;51.978;5.654;2023-06-24T15:39:32;31.9;40.6
79356;SHT31;68825;51.978;5.654;2023-06-24T15:42:01;31.9;39.0
79356;SHT31;68825;51.978;5.654;2023-06-24T15:44:31;31.9;40.2
79356;SHT31;68825;51.978;5.654;2023-06-24T15:47:00;32.0;41.9
79356;SHT31;68825;51.978;5.654;2023-06-24T15:49:30;32.0;39.7
79356;SHT31;68825;51.978;5.654;2023-06-24T15:51:58;32.1;38.9
79356;SHT31;68825;51.978;5.654;2023-06-24T15:54:30;32.1;37.3
79356;SHT31;68825;51.978;5.654;2023-06-24T15:56:59;32.2;39.5
79356;SHT31;68825;51.978;5.654;2023-06-24T15:59:28;32.2;36.0
79356;SHT31;68825;51.978;5.654;2023-06-24T16:01:57;32.2;39.5
79356;SHT31;68825;51.978;5.654;2023-06-24T16:04:26;32.2;37.4
79356;SHT31;68825;51.978;5.654;2023-06-24T16:06:54;32.2;36.3
79356;SHT31;68825;51.978;5.654;2023-06-24T16:09:23;32.2;37.8
79356;SHT31;68825;51.978;5.654;2023-06-24T16:11:51;32.1;36.9
79356;SHT31;68825;51.978;5.654;2023-06-24T16:14:20;32.0;38.5
79356;SHT31;68825;51.978;5.654;2023-06-24T16:16:48;31.8;40.8
79356;SHT31;68825;51.978;5.654;2023-06-24T16:19:18;31.6;40.7
79356;SHT31;68825;51.978;5.654;2023-06-24T16:21:46;31.5;38.5